createdAt,value
2022-09-25T00:01:10.218Z,4.28
2022-09-25T00:03:37.814Z,4.00
2022-09-25T00:06:08.268Z,4.15
2022-09-25T00:08:36.782Z,4.93
2022-09-25T00:11:22.248Z,4.80
2022-09-25T00:13:49.990Z,4.30
2022-09-25T00:16:20.505Z,4.45
2022-09-25T00:19:06.222Z,4.40
2022-09-25T00:21:35.398Z,4.35
2022-09-25T00:24:08.351Z,4.88
2022-09-25T00:26:38.787Z,4.50
2022-09-25T00:29:11.205Z,4.47
2022-09-25T00:31:38.170Z,3.90
2022-09-25T00:34:06.100Z,5.60
2022-09-25T00:36:34.031Z,4.63
2022-09-25T00:39:01.710Z,5.22
2022-09-25T00:41:33.137Z,6.38
2022-09-25T00:44:02.355Z,5.87
2022-09-25T00:46:34.847Z,7.03
2022-09-25T00:49:17.662Z,5.90
2022-09-25T00:52:05.151Z,6.45
2022-09-25T00:54:36.005Z,5.80
2022-09-25T00:57:10.327Z,5.57
2022-09-25T00:59:43.303Z,4.28
2022-09-25T01:02:17.701Z,5.03
2022-09-25T01:04:47.375Z,4.70
2022-09-25T01:07:16.094Z,4.07
2022-09-25T01:09:44.440Z,4.63
2022-09-25T01:12:11.400Z,4.03
2022-09-25T01:14:40.272Z,5.45
2022-09-25T01:17:28.356Z,3.97
2022-09-25T01:20:13.415Z,4.50
2022-09-25T01:23:09.365Z,4.05
2022-09-25T01:25:42.871Z,4.50
2022-09-25T01:28:24.781Z,3.63
2022-09-25T01:30:58.922Z,3.85
2022-09-25T01:33:52.073Z,4.20
2022-09-25T01:36:28.782Z,3.83
2022-09-25T01:39:32.358Z,3.90
2022-09-25T01:42:08.755Z,3.58
2022-09-25T01:44:46.553Z,3.45
2022-09-25T01:47:20.404Z,4.20
2022-09-25T01:50:00.883Z,3.30
2022-09-25T01:52:36.118Z,4.03
2022-09-25T01:55:29.044Z,3.30
2022-09-25T01:58:03.798Z,3.42
2022-09-25T02:00:33.539Z,3.42
2022-09-25T02:03:16.038Z,2.70
2022-09-25T02:05:48.996Z,2.65
2022-09-25T02:08:23.157Z,3.10
2022-09-25T02:10:58.904Z,2.65
2022-09-25T02:13:37.236Z,2.45
2022-09-25T02:16:10.870Z,2.60
2022-09-25T02:18:56.721Z,2.40
2022-09-25T02:21:38.843Z,2.33
2022-09-25T02:24:17.671Z,3.08
2022-09-25T02:26:44.787Z,2.53
2022-09-25T02:29:14.016Z,3.00
2022-09-25T02:32:09.905Z,2.05
2022-09-25T02:34:37.680Z,1.60
2022-09-25T02:37:14.111Z,2.25
2022-09-25T02:39:43.139Z,1.95
2022-09-25T02:42:28.878Z,1.92
2022-09-25T02:44:58.914Z,1.75
2022-09-25T02:47:36.022Z,2.60
2022-09-25T02:50:34.897Z,2.55
2022-09-25T02:53:25.736Z,1.92
2022-09-25T02:56:09.193Z,2.22
2022-09-25T02:58:49.211Z,2.33
2022-09-25T03:01:20.697Z,1.90
2022-09-25T03:03:51.429Z,2.40
2022-09-25T03:06:19.443Z,2.10
2022-09-25T03:08:52.224Z,2.10
2022-09-25T03:11:22.043Z,2.25
2022-09-25T03:14:03.021Z,3.40
2022-09-25T03:16:47.738Z,3.22
2022-09-25T03:19:16.153Z,3.28
2022-09-25T03:21:43.503Z,3.53
2022-09-25T03:24:10.694Z,4.00
2022-09-25T03:26:37.833Z,4.85
2022-09-25T03:29:05.000Z,5.32
2022-09-25T03:31:32.523Z,3.63
2022-09-25T03:33:59.545Z,3.38
2022-09-25T03:36:28.748Z,3.78
2022-09-25T03:39:00.246Z,3.83
2022-09-25T03:41:30.864Z,3.88
2022-09-25T03:43:58.764Z,4.82
2022-09-25T03:46:28.762Z,3.42
2022-09-25T03:48:56.988Z,3.00
2022-09-25T03:51:26.094Z,3.22
2022-09-25T03:53:53.649Z,3.45
2022-09-25T03:56:24.368Z,3.55
2022-09-25T03:58:54.376Z,3.58
2022-09-25T04:01:22.853Z,2.63
2022-09-25T04:03:51.010Z,3.08
2022-09-25T04:06:20.777Z,3.38
2022-09-25T04:08:48.882Z,2.85
2022-09-25T04:11:20.461Z,2.88
2022-09-25T04:13:48.131Z,2.83
2022-09-25T04:16:17.294Z,2.58
2022-09-25T04:18:44.923Z,2.60
2022-09-25T04:21:13.940Z,3.08
2022-09-25T04:23:42.225Z,2.47
2022-09-25T04:26:09.814Z,3.72
2022-09-25T04:28:37.307Z,3.38
2022-09-25T04:31:05.029Z,3.50
2022-09-25T04:33:48.585Z,2.83
2022-09-25T04:36:16.990Z,2.83
2022-09-25T04:38:44.279Z,3.00
2022-09-25T04:41:11.669Z,3.30
2022-09-25T04:43:41.037Z,2.75
2022-09-25T04:46:09.567Z,3.80
2022-09-25T04:48:37.007Z,3.65
2022-09-25T04:51:05.416Z,3.90
2022-09-25T04:53:36.424Z,3.75
2022-09-25T04:56:10.864Z,4.00
2022-09-25T04:58:47.843Z,3.88
2022-09-25T05:01:17.153Z,4.50
2022-09-25T05:03:44.433Z,4.60
2022-09-25T05:06:11.652Z,5.38
2022-09-25T05:08:38.904Z,4.88
2022-09-25T05:11:08.010Z,5.32
2022-09-25T05:13:35.119Z,5.68
2022-09-25T05:16:02.362Z,5.63
2022-09-25T05:18:29.478Z,5.78
2022-09-25T05:20:56.938Z,6.75
2022-09-25T05:23:24.219Z,6.80
2022-09-25T05:25:52.997Z,6.70
2022-09-25T05:28:20.010Z,7.00
2022-09-25T05:30:47.217Z,6.75
2022-09-25T05:33:14.152Z,6.13
2022-09-25T05:35:41.138Z,6.63
2022-09-25T05:38:09.112Z,5.68
2022-09-25T05:40:39.383Z,5.53
2022-09-25T05:43:07.175Z,4.85
2022-09-25T05:45:37.441Z,6.10
2022-09-25T05:48:06.682Z,5.85
2022-09-25T05:50:34.056Z,5.72
2022-09-25T05:53:03.601Z,6.07
2022-09-25T05:55:31.458Z,5.45
2022-09-25T05:58:02.783Z,5.82
2022-09-25T06:00:32.918Z,5.78
2022-09-25T06:03:02.171Z,6.90
2022-09-25T06:05:30.014Z,6.28
2022-09-25T06:07:56.969Z,6.10
2022-09-25T06:10:26.844Z,6.72
2022-09-25T06:12:59.054Z,6.82
2022-09-25T06:17:57.117Z,5.60
2022-09-25T06:20:25.174Z,5.63
2022-09-25T06:22:56.142Z,5.45
2022-09-25T06:25:26.031Z,5.82
2022-09-25T06:27:54.964Z,5.15
2022-09-25T06:30:23.869Z,6.43
2022-09-25T06:32:58.219Z,5.75
2022-09-25T06:35:25.879Z,5.95
2022-09-25T06:37:56.377Z,5.45
2022-09-25T06:40:23.392Z,5.40
2022-09-25T06:42:56.155Z,5.78
2022-09-25T06:45:23.615Z,6.32
2022-09-25T06:47:50.750Z,5.85
2022-09-25T06:50:17.580Z,6.10
2022-09-25T06:52:45.158Z,6.20
2022-09-25T06:55:12.410Z,6.45
2022-09-25T06:57:39.692Z,6.43
2022-09-25T07:00:08.080Z,6.03
2022-09-25T07:02:53.924Z,5.60
2022-09-25T07:05:21.520Z,6.07
2022-09-25T07:07:48.631Z,6.03
2022-09-25T07:10:16.672Z,6.28
2022-09-25T07:12:43.734Z,7.50
2022-09-25T07:15:12.263Z,6.60
2022-09-25T07:17:43.110Z,6.15
2022-09-25T07:20:12.822Z,6.60
2022-09-25T07:22:41.266Z,6.38
2022-09-25T07:25:09.848Z,7.70
2022-09-25T07:27:37.122Z,7.00
2022-09-25T07:30:05.503Z,6.70
2022-09-25T07:32:32.890Z,6.72
2022-09-25T07:35:00.337Z,6.63
2022-09-25T07:37:27.866Z,6.72
2022-09-25T07:39:54.789Z,6.75
2022-09-25T07:42:22.087Z,5.65
2022-09-25T07:44:49.577Z,6.80
2022-09-25T07:47:17.939Z,6.38
2022-09-25T07:49:45.382Z,5.82
2022-09-25T07:52:13.967Z,5.20
2022-09-25T07:54:41.055Z,6.60
2022-09-25T07:57:08.249Z,5.80
2022-09-25T07:59:35.377Z,5.68
2022-09-25T08:02:04.061Z,5.55
2022-09-25T08:04:31.226Z,6.47
2022-09-25T08:07:01.748Z,6.25
2022-09-25T08:09:29.462Z,6.25
2022-09-25T08:11:56.477Z,6.43
2022-09-25T08:14:27.006Z,7.22
2022-09-25T08:16:56.121Z,7.25
2022-09-25T08:19:24.142Z,6.78
2022-09-25T08:21:51.205Z,6.80
2022-09-25T08:24:18.156Z,6.57
2022-09-25T08:26:47.424Z,6.38
2022-09-25T08:29:14.534Z,6.60
2022-09-25T08:31:41.458Z,5.80
2022-09-25T08:34:36.353Z,4.95
2022-09-25T08:37:23.266Z,5.60
2022-09-25T08:39:52.943Z,5.40
2022-09-25T08:42:33.056Z,4.10
2022-09-25T08:45:22.890Z,4.60
2022-09-25T08:48:11.580Z,4.10
2022-09-25T08:50:38.605Z,4.50
2022-09-25T08:53:28.893Z,4.57
2022-09-25T08:56:14.889Z,3.78
2022-09-25T08:58:45.109Z,4.65
2022-09-25T09:01:50.097Z,3.67
2022-09-25T09:04:54.347Z,4.32
2022-09-25T09:07:34.409Z,5.25
2022-09-25T09:10:08.243Z,4.53
2022-09-25T09:12:42.881Z,3.67
2022-09-25T09:15:32.651Z,3.17
2022-09-25T09:18:06.090Z,3.45
2022-09-25T09:20:50.855Z,2.97
2022-09-25T09:23:20.758Z,3.55
2022-09-25T09:26:06.507Z,3.75
2022-09-25T09:28:33.532Z,3.47
2022-09-25T09:31:17.321Z,2.78
2022-09-25T09:33:58.114Z,2.55
2022-09-25T09:36:56.420Z,2.75
2022-09-25T09:39:39.689Z,2.88
2022-09-25T09:42:15.632Z,2.53
2022-09-25T09:45:09.422Z,2.20
2022-09-25T09:47:53.497Z,2.03
2022-09-25T09:50:42.761Z,1.85
2022-09-25T09:53:28.727Z,1.80
2022-09-25T09:56:09.015Z,1.77
2022-09-25T09:59:12.765Z,0.90
2022-09-25T10:01:43.058Z,1.02
2022-09-25T10:04:18.224Z,1.35
2022-09-25T10:06:50.780Z,1.30
2022-09-25T10:09:18.729Z,1.48
2022-09-25T10:11:53.273Z,0.77
2022-09-25T10:14:22.533Z,1.55
2022-09-25T10:16:52.649Z,0.98
2022-09-25T10:19:26.035Z,0.93
2022-09-25T10:22:03.384Z,0.82
2022-09-25T10:24:54.953Z,0.82
2022-09-25T10:27:27.407Z,0.85
2022-09-25T10:30:08.869Z,1.10
2022-09-25T10:32:58.077Z,1.47
2022-09-25T10:35:39.245Z,0.70
2022-09-25T10:38:17.159Z,0.80
2022-09-25T10:40:47.637Z,1.00
2022-09-25T10:43:21.117Z,0.70
2022-09-25T10:45:58.701Z,0.90
2022-09-25T10:48:48.936Z,0.77
2022-09-25T10:51:21.435Z,1.30
2022-09-25T10:53:53.850Z,0.75
2022-09-25T10:56:22.837Z,1.23
2022-09-25T10:58:57.598Z,0.52
2022-09-25T11:01:46.211Z,0.90
2022-09-25T11:04:16.824Z,0.65
2022-09-25T11:06:52.494Z,0.82
2022-09-25T11:09:25.693Z,1.02
2022-09-25T11:12:04.642Z,0.85
2022-09-25T11:14:34.258Z,0.80
2022-09-25T11:17:07.041Z,0.93
2022-09-25T11:19:36.390Z,0.73
2022-09-25T11:22:45.007Z,0.60
2022-09-25T11:25:20.481Z,0.65
2022-09-25T11:28:02.932Z,0.50
2022-09-25T11:33:27.157Z,0.57
2022-09-25T11:36:00.033Z,0.68
2022-09-25T11:39:02.670Z,0.45
2022-09-25T11:44:06.008Z,0.68
2022-09-25T11:46:36.294Z,0.70
2022-09-25T11:49:15.640Z,0.50
2022-09-25T11:52:18.532Z,1.02
2022-09-25T11:54:52.712Z,0.70
2022-09-25T11:57:37.107Z,0.88
2022-09-25T12:00:21.913Z,0.60
2022-09-25T12:03:14.319Z,0.60
2022-09-25T12:05:50.206Z,0.47
2022-09-25T12:08:38.780Z,0.55
2022-09-25T12:11:24.602Z,0.68
2022-09-25T12:13:54.576Z,0.50
2022-09-25T12:16:44.123Z,0.75
2022-09-25T12:19:33.547Z,0.57
2022-09-25T12:22:54.779Z,0.90
2022-09-25T12:25:33.788Z,1.00
2022-09-25T12:29:04.285Z,0.70
2022-09-25T12:32:04.648Z,0.65
2022-09-25T12:34:42.219Z,0.60
2022-09-25T12:37:33.866Z,0.40
2022-09-25T12:40:06.103Z,0.50
2022-09-25T12:45:38.716Z,0.50
2022-09-25T12:48:17.209Z,0.57
2022-09-25T12:51:10.696Z,0.70
2022-09-25T12:53:46.825Z,0.60
2022-09-25T12:56:32.560Z,0.40
2022-09-25T12:59:44.048Z,0.85
2022-09-25T13:02:34.135Z,0.90
2022-09-25T13:05:07.068Z,0.47
2022-09-25T13:07:41.397Z,0.80
2022-09-25T13:10:42.039Z,0.50
2022-09-25T13:13:19.525Z,0.77
2022-09-25T13:15:52.347Z,0.68
2022-09-25T13:18:23.173Z,0.90
2022-09-25T13:20:52.957Z,1.15
2022-09-25T13:23:41.802Z,0.70
2022-09-25T13:26:12.898Z,0.35
2022-09-25T13:28:49.411Z,0.60
2022-09-25T13:31:28.409Z,0.82
2022-09-25T13:33:57.832Z,0.52
2022-09-25T13:36:25.496Z,0.38
2022-09-25T13:39:24.324Z,0.47
2022-09-25T13:42:16.497Z,0.60
2022-09-25T13:47:25.701Z,0.50
2022-09-25T13:50:11.487Z,0.80
2022-09-25T13:52:41.265Z,0.80
2022-09-25T13:55:14.321Z,0.50
2022-09-25T13:57:57.472Z,0.63
2022-09-25T14:00:58.746Z,0.60
2022-09-25T14:03:32.376Z,0.50
2022-09-25T14:06:00.971Z,0.60
2022-09-25T14:08:31.283Z,0.50
2022-09-25T14:11:02.254Z,0.45
2022-09-25T14:13:31.426Z,0.77
2022-09-25T14:16:03.570Z,0.90
2022-09-25T14:18:48.320Z,0.98
2022-09-25T14:21:20.535Z,0.80
2022-09-25T14:23:53.492Z,0.80
2022-09-25T14:26:44.989Z,0.93
2022-09-25T14:29:17.662Z,0.88
2022-09-25T14:32:25.853Z,0.88
2022-09-25T14:35:10.141Z,0.90
2022-09-25T14:37:58.134Z,1.02
2022-09-25T14:40:50.959Z,0.65
2022-09-25T14:43:54.532Z,0.70
2022-09-25T14:46:22.833Z,0.70
2022-09-25T14:49:06.120Z,0.60
2022-09-25T14:51:45.029Z,0.90
2022-09-25T14:54:18.549Z,0.93
2022-09-25T14:56:50.172Z,0.93
2022-09-25T14:59:23.394Z,0.73
2022-09-25T15:01:52.619Z,0.73
2022-09-25T15:04:28.546Z,0.60
2022-09-25T15:07:20.966Z,0.82
2022-09-25T15:09:49.453Z,0.55
2022-09-25T15:12:31.214Z,0.95
2022-09-25T15:15:01.931Z,0.90
2022-09-25T15:17:31.328Z,0.55
2022-09-25T15:20:02.665Z,0.60
2022-09-25T15:22:34.234Z,0.73
2022-09-25T15:25:04.129Z,0.88
2022-09-25T15:27:31.972Z,0.80
2022-09-25T15:30:03.135Z,0.60
2022-09-25T15:32:39.941Z,0.70
2022-09-25T15:35:20.885Z,0.47
2022-09-25T15:37:48.319Z,0.68
2022-09-25T15:40:29.216Z,0.90
2022-09-25T15:42:56.965Z,0.38
2022-09-25T15:45:43.495Z,0.45
2022-09-25T15:48:18.028Z,0.80
2022-09-25T15:50:45.533Z,1.08
2022-09-25T15:53:26.745Z,0.80
2022-09-25T15:56:30.654Z,0.88
2022-09-25T15:59:12.396Z,0.60
2022-09-25T16:02:01.793Z,0.70
2022-09-25T16:04:46.147Z,0.50
2022-09-25T16:07:24.310Z,0.90
2022-09-25T16:09:54.265Z,0.60
2022-09-25T16:12:45.985Z,0.60
2022-09-25T16:15:29.939Z,0.97
2022-09-25T16:18:05.658Z,0.60
2022-09-25T16:20:36.310Z,0.80
2022-09-25T16:23:06.230Z,0.63
2022-09-25T16:25:37.111Z,0.65
2022-09-25T16:28:31.716Z,0.45
2022-09-25T16:31:03.274Z,0.93
2022-09-25T16:33:31.701Z,0.88
2022-09-25T16:36:14.603Z,0.70
2022-09-25T16:39:08.304Z,0.63
2022-09-25T16:41:37.213Z,0.77
2022-09-25T16:44:47.109Z,0.90
2022-09-25T16:47:20.130Z,0.88
2022-09-25T16:49:50.426Z,0.73
2022-09-25T16:52:20.896Z,1.42
2022-09-25T16:54:53.864Z,1.90
2022-09-25T16:57:22.642Z,1.70
2022-09-25T16:59:50.048Z,0.90
2022-09-25T17:02:33.000Z,1.08
2022-09-25T17:05:11.215Z,0.80
2022-09-25T17:07:38.426Z,0.80
2022-09-25T17:10:05.982Z,0.82
2022-09-25T17:12:34.518Z,1.17
2022-09-25T17:15:03.138Z,0.90
2022-09-25T17:17:31.062Z,0.88
2022-09-25T17:20:00.065Z,1.00
2022-09-25T17:22:30.458Z,1.17
2022-09-25T17:25:02.218Z,1.00
2022-09-25T17:27:30.506Z,0.70
2022-09-25T17:29:57.889Z,0.77
2022-09-25T17:32:25.007Z,0.93
2022-09-25T17:34:52.399Z,0.80
2022-09-25T17:37:19.402Z,1.15
2022-09-25T17:39:46.503Z,0.70
2022-09-25T17:42:13.530Z,0.95
2022-09-25T17:44:43.514Z,0.77
2022-09-25T17:47:10.679Z,0.90
2022-09-25T17:49:37.712Z,1.70
2022-09-25T17:52:05.258Z,1.05
2022-09-25T17:54:32.447Z,1.30
2022-09-25T17:57:00.022Z,0.90
2022-09-25T17:59:27.098Z,1.10
2022-09-25T18:02:08.836Z,1.10
2022-09-25T18:04:38.048Z,1.13
2022-09-25T18:07:06.493Z,1.10
2022-09-25T18:09:33.533Z,1.10
2022-09-25T18:12:00.820Z,1.05
2022-09-25T18:14:27.855Z,1.33
2022-09-25T18:16:54.799Z,1.00
2022-09-25T18:19:40.518Z,0.90
2022-09-25T18:22:21.893Z,0.98
2022-09-25T18:24:54.306Z,0.98
2022-09-25T18:27:22.501Z,1.67
2022-09-25T18:29:51.085Z,1.60
2022-09-25T18:32:20.299Z,1.75
2022-09-25T18:34:47.775Z,1.83
2022-09-25T18:37:14.991Z,1.52
2022-09-25T18:39:43.067Z,1.00
2022-09-25T18:42:10.183Z,0.93
2022-09-25T18:44:42.290Z,1.10
2022-09-25T18:47:10.738Z,0.90
2022-09-25T18:49:38.038Z,1.10
2022-09-25T18:52:05.883Z,1.00
2022-09-25T18:54:33.169Z,1.27
2022-09-25T18:57:00.233Z,1.20
2022-09-25T18:59:27.350Z,1.00
2022-09-25T19:01:56.091Z,0.90
2022-09-25T19:04:25.712Z,1.00
2022-09-25T19:06:53.163Z,0.85
2022-09-25T19:09:24.526Z,0.85
2022-09-25T19:11:51.802Z,1.20
2022-09-25T19:14:19.902Z,1.60
2022-09-25T19:16:53.100Z,1.17
2022-09-25T19:19:20.387Z,1.08
2022-09-25T19:21:47.668Z,0.93
2022-09-25T19:24:15.342Z,1.00
2022-09-25T19:26:44.231Z,1.40
2022-09-25T19:29:11.463Z,1.00
2022-09-25T19:31:38.482Z,1.20
2022-09-25T19:34:05.765Z,1.70
2022-09-25T19:36:34.965Z,1.60
2022-09-25T19:39:03.429Z,1.80
2022-09-25T19:41:35.167Z,1.70
2022-09-25T19:44:12.315Z,1.65
2022-09-25T19:46:41.566Z,2.22
2022-09-25T19:49:09.963Z,2.60
2022-09-25T19:51:37.774Z,3.05
2022-09-25T19:54:09.980Z,3.50
2022-09-25T19:59:14.065Z,10.27
2022-09-25T20:01:43.015Z,9.00
2022-09-25T20:04:15.733Z,7.03
2022-09-25T20:06:46.233Z,6.65
2022-09-25T20:09:13.621Z,7.68
2022-09-25T20:11:41.038Z,8.35
2022-09-25T20:14:08.171Z,8.77
2022-09-25T20:16:37.796Z,5.20
2022-09-25T20:19:06.724Z,3.88
2022-09-25T20:21:38.983Z,4.38
2022-09-25T20:26:35.922Z,7.15
2022-09-25T20:29:08.965Z,5.30
2022-09-25T20:31:38.320Z,4.05
2022-09-25T20:34:05.783Z,3.80
2022-09-25T20:36:33.699Z,3.50
2022-09-25T20:39:01.149Z,2.50
2022-09-25T20:41:28.309Z,2.40
2022-09-25T20:43:57.589Z,2.78
2022-09-25T20:46:26.579Z,2.72
2022-09-25T20:48:57.611Z,2.75
2022-09-25T20:51:30.916Z,2.72
2022-09-25T20:54:00.154Z,3.05
2022-09-25T20:56:29.508Z,2.97
2022-09-25T20:58:57.921Z,2.83
2022-09-25T21:01:36.832Z,3.40
2022-09-25T21:04:08.026Z,4.38
2022-09-25T21:06:37.785Z,4.90
2022-09-25T21:09:21.454Z,5.13
2022-09-25T21:11:49.119Z,4.72
2022-09-25T21:14:35.684Z,4.20
2022-09-25T21:17:02.978Z,3.05
2022-09-25T21:19:30.211Z,3.17
2022-09-25T21:21:57.354Z,3.28
2022-09-25T21:24:24.581Z,3.47
2022-09-25T21:26:51.628Z,4.65
2022-09-25T21:29:18.752Z,4.45
2022-09-25T21:31:49.910Z,4.30
2022-09-25T21:34:18.304Z,5.07
2022-09-25T21:36:45.718Z,4.80
2022-09-25T21:39:13.453Z,4.47
2022-09-25T21:41:40.847Z,3.47
2022-09-25T21:44:18.853Z,4.13
2022-09-25T21:46:55.163Z,4.38
2022-09-25T21:49:22.529Z,5.10
2022-09-25T21:51:51.104Z,5.35
2022-09-25T21:54:19.085Z,4.28
2022-09-25T21:57:05.800Z,4.50
2022-09-25T21:59:35.576Z,5.60
2022-09-25T22:02:02.441Z,4.60
2022-09-25T22:04:29.409Z,4.47
2022-09-25T22:06:57.663Z,4.82
2022-09-25T22:09:25.602Z,4.88
2022-09-25T22:11:52.843Z,5.13
2022-09-25T22:14:21.144Z,5.50
2022-09-25T22:16:50.701Z,5.57
2022-09-25T22:19:21.346Z,6.43
2022-09-25T22:21:52.789Z,6.03
2022-09-25T22:24:20.371Z,5.63
2022-09-25T22:26:49.055Z,5.07
2022-09-25T22:29:16.649Z,4.85
2022-09-25T22:31:44.230Z,5.18
2022-09-25T22:34:20.533Z,5.00
2022-09-25T22:36:48.436Z,4.80
2022-09-25T22:39:17.707Z,4.90
2022-09-25T22:41:45.296Z,4.40
2022-09-25T22:44:12.418Z,4.43
2022-09-25T22:46:39.574Z,5.20
2022-09-25T22:49:06.770Z,4.57
2022-09-25T22:51:33.784Z,5.15
2022-09-25T22:54:01.155Z,4.88
2022-09-25T22:56:30.488Z,5.00
2022-09-25T22:59:06.521Z,4.55
2022-09-25T23:01:38.099Z,4.53
2022-09-25T23:04:12.701Z,4.43
2022-09-25T23:06:40.136Z,4.00
2022-09-25T23:09:19.049Z,4.30
2022-09-25T23:11:45.918Z,4.43
2022-09-25T23:14:17.306Z,3.90
2022-09-25T23:16:46.268Z,3.40
2022-09-25T23:19:14.533Z,4.32
2022-09-25T23:21:41.706Z,3.85
2022-09-25T23:24:17.126Z,4.10
2022-09-25T23:26:44.726Z,4.07
2022-09-25T23:29:13.472Z,3.78
2022-09-25T23:31:42.110Z,3.90
2022-09-25T23:34:09.900Z,3.55
2022-09-25T23:36:37.149Z,4.20
2022-09-25T23:39:06.101Z,3.78
2022-09-25T23:41:35.836Z,3.42
2022-09-25T23:44:04.726Z,3.40
2022-09-25T23:46:34.404Z,3.22
2022-09-25T23:49:02.183Z,3.80
2022-09-25T23:51:29.448Z,3.40
2022-09-25T23:53:58.946Z,3.70
2022-09-25T23:56:29.067Z,3.47
2022-09-25T23:58:57.314Z,3.47
